sensor_id;sensor_type;location;lat;lon;timestamp;temperature;humidity
16263;DHT22;8239;48.594;8.598;2023-03-31T00:01:50;4.70;99.90
16263;DHT22;8239;48.594;8.598;2023-03-31T00:04:19;4.70;99.90
16263;DHT22;8239;48.594;8.598;2023-03-31T00:06:49;4.60;99.90
16263;DHT22;8239;48.594;8.598;2023-03-31T00:09:20;4.50;99.90
16263;DHT22;8239;48.594;8.598;2023-03-31T00:11:48;4.50;99.90
16263;DHT22;8239;48.594;8.598;2023-03-31T00:14:15;4.50;99.90
16263;DHT22;8239;48.594;8.598;2023-03-31T00:16:43;4.50;99.90
16263;DHT22;8239;48.594;8.598;2023-03-31T00:19:11;4.50;99.90
16263;DHT22;8239;48.594;8.598;2023-03-31T00:21:43;4.60;99.90
16263;DHT22;8239;48.594;8.598;2023-03-31T00:24:11;4.60;99.90
16263;DHT22;8239;48.594;8.598;2023-03-31T00:26:39;4.60;99.90
16263;DHT22;8239;48.594;8.598;2023-03-31T00:29:08;4.70;99.90
16263;DHT22;8239;48.594;8.598;2023-03-31T00:31:35;4.70;99.90
16263;DHT22;8239;48.594;8.598;2023-03-31T00:34:03;4.80;99.90
16263;DHT22;8239;48.594;8.598;2023-03-31T00:36:30;4.90;99.90
16263;DHT22;8239;48.594;8.598;2023-03-31T00:39:03;4.90;99.90
16263;DHT22;8239;48.594;8.598;2023-03-31T00:41:30;5.00;99.90
16263;DHT22;8239;48.594;8.598;2023-03-31T00:44:07;5.00;99.90
16263;DHT22;8239;48.594;8.598;2023-03-31T00:46:38;5.10;99.90
16263;DHT22;8239;48.594;8.598;2023-03-31T00:49:13;5.10;99.90
16263;DHT22;8239;48.594;8.598;2023-03-31T00:51:43;5.20;99.90
16263;DHT22;8239;48.594;8.598;2023-03-31T00:54:10;5.30;99.90
16263;DHT22;8239;48.594;8.598;2023-03-31T00:56:40;5.30;99.90
16263;DHT22;8239;48.594;8.598;2023-03-31T00:59:11;5.30;99.90
16263;DHT22;8239;48.594;8.598;2023-03-31T01:01:40;5.30;99.90
16263;DHT22;8239;48.594;8.598;2023-03-31T01:04:09;5.30;99.90
16263;DHT22;8239;48.594;8.598;2023-03-31T01:06:43;5.20;99.90
16263;DHT22;8239;48.594;8.598;2023-03-31T01:09:15;5.20;99.90
16263;DHT22;8239;48.594;8.598;2023-03-31T01:11:43;5.20;99.90
16263;DHT22;8239;48.594;8.598;2023-03-31T01:14:13;5.20;99.90
16263;DHT22;8239;48.594;8.598;2023-03-31T01:16:40;5.20;99.90
16263;DHT22;8239;48.594;8.598;2023-03-31T01:19:12;5.20;99.90
16263;DHT22;8239;48.594;8.598;2023-03-31T01:27:58;5.40;99.90
16263;DHT22;8239;48.594;8.598;2023-03-31T01:30:50;5.80;99.90
16263;DHT22;8239;48.594;8.598;2023-03-31T01:36:59;6.50;99.90
16263;DHT22;8239;48.594;8.598;2023-03-31T01:42:47;7.00;99.90
16263;DHT22;8239;48.594;8.598;2023-03-31T01:45:25;7.20;99.90
16263;DHT22;8239;48.594;8.598;2023-03-31T01:47:58;7.30;99.90
16263;DHT22;8239;48.594;8.598;2023-03-31T01:50:28;7.40;99.90
16263;DHT22;8239;48.594;8.598;2023-03-31T01:53:00;7.50;99.90
16263;DHT22;8239;48.594;8.598;2023-03-31T01:55:34;7.50;99.90
16263;DHT22;8239;48.594;8.598;2023-03-31T01:58:07;7.50;99.90
16263;DHT22;8239;48.594;8.598;2023-03-31T02:00:38;7.50;99.90
16263;DHT22;8239;48.594;8.598;2023-03-31T02:03:10;7.50;99.90
16263;DHT22;8239;48.594;8.598;2023-03-31T02:05:48;7.50;99.90
16263;DHT22;8239;48.594;8.598;2023-03-31T02:08:21;7.50;99.90
16263;DHT22;8239;48.594;8.598;2023-03-31T02:10:50;7.50;99.90
16263;DHT22;8239;48.594;8.598;2023-03-31T02:13:20;7.50;99.90
16263;DHT22;8239;48.594;8.598;2023-03-31T02:15:52;7.50;99.90
16263;DHT22;8239;48.594;8.598;2023-03-31T02:18:25;7.50;99.90
16263;DHT22;8239;48.594;8.598;2023-03-31T02:20:57;7.50;99.90
16263;DHT22;8239;48.594;8.598;2023-03-31T02:23:27;7.40;99.90
16263;DHT22;8239;48.594;8.598;2023-03-31T02:26:00;7.40;99.90
16263;DHT22;8239;48.594;8.598;2023-03-31T02:28:29;7.30;99.90
16263;DHT22;8239;48.594;8.598;2023-03-31T02:31:05;7.30;99.90
16263;DHT22;8239;48.594;8.598;2023-03-31T02:33:33;7.20;99.90
16263;DHT22;8239;48.594;8.598;2023-03-31T02:36:01;7.20;99.90
16263;DHT22;8239;48.594;8.598;2023-03-31T02:38:31;7.10;99.90
16263;DHT22;8239;48.594;8.598;2023-03-31T02:41:01;7.10;99.90
16263;DHT22;8239;48.594;8.598;2023-03-31T02:43:28;7.00;99.90
16263;DHT22;8239;48.594;8.598;2023-03-31T02:45:55;6.90;99.90
16263;DHT22;8239;48.594;8.598;2023-03-31T02:48:25;6.90;99.90
16263;DHT22;8239;48.594;8.598;2023-03-31T02:51:01;6.80;99.90
16263;DHT22;8239;48.594;8.598;2023-03-31T02:53:41;6.70;99.90
16263;DHT22;8239;48.594;8.598;2023-03-31T02:56:28;6.60;99.90
16263;DHT22;8239;48.594;8.598;2023-03-31T02:59:15;6.50;99.90
16263;DHT22;8239;48.594;8.598;2023-03-31T03:01:56;6.40;99.90
16263;DHT22;8239;48.594;8.598;2023-03-31T03:04:48;6.40;99.90
16263;DHT22;8239;48.594;8.598;2023-03-31T03:07:24;6.50;99.90
16263;DHT22;8239;48.594;8.598;2023-03-31T03:10:00;6.40;99.90
16263;DHT22;8239;48.594;8.598;2023-03-31T03:12:36;6.50;99.90
16263;DHT22;8239;48.594;8.598;2023-03-31T03:15:09;6.50;99.90
16263;DHT22;8239;48.594;8.598;2023-03-31T03:17:38;6.50;99.90
16263;DHT22;8239;48.594;8.598;2023-03-31T03:20:08;6.40;99.90
16263;DHT22;8239;48.594;8.598;2023-03-31T03:22:36;6.30;99.90
16263;DHT22;8239;48.594;8.598;2023-03-31T03:25:04;6.30;99.90
16263;DHT22;8239;48.594;8.598;2023-03-31T03:27:32;6.30;99.90
16263;DHT22;8239;48.594;8.598;2023-03-31T03:30:00;6.20;99.90
16263;DHT22;8239;48.594;8.598;2023-03-31T03:32:29;6.10;99.90
16263;DHT22;8239;48.594;8.598;2023-03-31T03:34:58;6.00;99.90
16263;DHT22;8239;48.594;8.598;2023-03-31T03:37:25;6.00;99.90
16263;DHT22;8239;48.594;8.598;2023-03-31T03:39:52;6.00;99.90
16263;DHT22;8239;48.594;8.598;2023-03-31T03:42:19;5.90;99.90
16263;DHT22;8239;48.594;8.598;2023-03-31T03:44:48;5.90;99.90
16263;DHT22;8239;48.594;8.598;2023-03-31T03:47:15;5.90;99.90
16263;DHT22;8239;48.594;8.598;2023-03-31T03:49:42;5.90;99.90
16263;DHT22;8239;48.594;8.598;2023-03-31T03:52:09;5.80;99.90
16263;DHT22;8239;48.594;8.598;2023-03-31T03:54:36;5.80;99.90
16263;DHT22;8239;48.594;8.598;2023-03-31T03:57:03;5.70;99.90
16263;DHT22;8239;48.594;8.598;2023-03-31T03:59:31;5.70;99.90
16263;DHT22;8239;48.594;8.598;2023-03-31T04:01:59;5.70;99.90
16263;DHT22;8239;48.594;8.598;2023-03-31T04:04:26;5.80;99.90
16263;DHT22;8239;48.594;8.598;2023-03-31T04:06:53;5.80;99.90
16263;DHT22;8239;48.594;8.598;2023-03-31T04:09:20;5.80;99.90
16263;DHT22;8239;48.594;8.598;2023-03-31T04:11:47;5.80;99.90
16263;DHT22;8239;48.594;8.598;2023-03-31T04:14:14;5.80;99.90
16263;DHT22;8239;48.594;8.598;2023-03-31T04:16:41;5.80;99.90
16263;DHT22;8239;48.594;8.598;2023-03-31T04:19:12;5.80;99.90
16263;DHT22;8239;48.594;8.598;2023-03-31T04:21:42;5.90;99.90
16263;DHT22;8239;48.594;8.598;2023-03-31T04:24:10;5.90;99.90
16263;DHT22;8239;48.594;8.598;2023-03-31T04:26:40;5.90;99.90
16263;DHT22;8239;48.594;8.598;2023-03-31T04:29:08;6.00;99.90
16263;DHT22;8239;48.594;8.598;2023-03-31T04:31:37;6.00;99.90
16263;DHT22;8239;48.594;8.598;2023-03-31T04:34:07;6.10;99.90
16263;DHT22;8239;48.594;8.598;2023-03-31T04:36:39;6.10;99.90
16263;DHT22;8239;48.594;8.598;2023-03-31T04:39:07;6.10;99.90
16263;DHT22;8239;48.594;8.598;2023-03-31T04:41:36;6.20;99.90
16263;DHT22;8239;48.594;8.598;2023-03-31T04:44:03;6.20;99.90
16263;DHT22;8239;48.594;8.598;2023-03-31T04:46:31;6.20;99.90
16263;DHT22;8239;48.594;8.598;2023-03-31T04:48:58;6.20;99.90
16263;DHT22;8239;48.594;8.598;2023-03-31T04:51:26;6.30;99.90
16263;DHT22;8239;48.594;8.598;2023-03-31T04:53:54;6.30;99.90
16263;DHT22;8239;48.594;8.598;2023-03-31T04:56:21;6.30;99.90
16263;DHT22;8239;48.594;8.598;2023-03-31T04:58:48;6.40;99.90
16263;DHT22;8239;48.594;8.598;2023-03-31T05:01:15;6.40;99.90
16263;DHT22;8239;48.594;8.598;2023-03-31T05:03:43;6.40;99.90
16263;DHT22;8239;48.594;8.598;2023-03-31T05:06:12;6.40;99.90
16263;DHT22;8239;48.594;8.598;2023-03-31T05:08:40;6.40;99.90
16263;DHT22;8239;48.594;8.598;2023-03-31T05:11:08;6.50;99.90
16263;DHT22;8239;48.594;8.598;2023-03-31T05:13:35;6.50;99.90
16263;DHT22;8239;48.594;8.598;2023-03-31T05:16:06;6.50;99.90
16263;DHT22;8239;48.594;8.598;2023-03-31T05:18:34;6.50;99.90
16263;DHT22;8239;48.594;8.598;2023-03-31T05:21:09;6.50;99.90
16263;DHT22;8239;48.594;8.598;2023-03-31T05:23:36;6.40;99.90
16263;DHT22;8239;48.594;8.598;2023-03-31T05:26:03;6.30;99.90
16263;DHT22;8239;48.594;8.598;2023-03-31T05:28:32;6.20;99.90
16263;DHT22;8239;48.594;8.598;2023-03-31T05:30:59;6.10;99.90
16263;DHT22;8239;48.594;8.598;2023-03-31T05:33:27;6.10;99.90
16263;DHT22;8239;48.594;8.598;2023-03-31T05:35:54;6.10;99.90
16263;DHT22;8239;48.594;8.598;2023-03-31T05:38:22;6.10;99.90
16263;DHT22;8239;48.594;8.598;2023-03-31T05:40:49;6.10;99.90
16263;DHT22;8239;48.594;8.598;2023-03-31T05:43:16;6.00;99.90
16263;DHT22;8239;48.594;8.598;2023-03-31T05:45:44;5.90;99.90
16263;DHT22;8239;48.594;8.598;2023-03-31T05:48:11;5.90;99.90
16263;DHT22;8239;48.594;8.598;2023-03-31T05:50:38;5.90;99.90
16263;DHT22;8239;48.594;8.598;2023-03-31T05:53:07;5.90;99.90
16263;DHT22;8239;48.594;8.598;2023-03-31T05:55:35;5.90;99.90
16263;DHT22;8239;48.594;8.598;2023-03-31T05:58:02;6.10;99.90
16263;DHT22;8239;48.594;8.598;2023-03-31T06:00:29;6.30;99.90
16263;DHT22;8239;48.594;8.598;2023-03-31T06:02:58;6.50;99.90
16263;DHT22;8239;48.594;8.598;2023-03-31T06:05:24;6.50;99.90
16263;DHT22;8239;48.594;8.598;2023-03-31T06:07:52;6.40;99.90
16263;DHT22;8239;48.594;8.598;2023-03-31T06:10:19;6.40;99.90
16263;DHT22;8239;48.594;8.598;2023-03-31T06:12:46;6.40;99.90
16263;DHT22;8239;48.594;8.598;2023-03-31T06:15:13;6.30;99.90
16263;DHT22;8239;48.594;8.598;2023-03-31T06:17:40;6.30;99.90
16263;DHT22;8239;48.594;8.598;2023-03-31T06:20:09;6.30;99.90
16263;DHT22;8239;48.594;8.598;2023-03-31T06:22:36;6.30;99.90
16263;DHT22;8239;48.594;8.598;2023-03-31T06:25:04;6.30;99.90
16263;DHT22;8239;48.594;8.598;2023-03-31T06:27:31;6.30;99.90
16263;DHT22;8239;48.594;8.598;2023-03-31T06:29:58;6.30;99.90
16263;DHT22;8239;48.594;8.598;2023-03-31T06:32:25;6.40;99.90
16263;DHT22;8239;48.594;8.598;2023-03-31T06:34:52;6.40;99.90
16263;DHT22;8239;48.594;8.598;2023-03-31T06:37:21;6.40;99.90
16263;DHT22;8239;48.594;8.598;2023-03-31T06:39:48;6.40;99.90
16263;DHT22;8239;48.594;8.598;2023-03-31T06:42:15;6.40;99.90
16263;DHT22;8239;48.594;8.598;2023-03-31T06:44:42;6.60;99.90
16263;DHT22;8239;48.594;8.598;2023-03-31T06:47:09;6.80;99.90
16263;DHT22;8239;48.594;8.598;2023-03-31T06:49:36;7.00;99.90
16263;DHT22;8239;48.594;8.598;2023-03-31T06:52:03;7.10;99.90
16263;DHT22;8239;48.594;8.598;2023-03-31T06:54:31;7.10;99.90
16263;DHT22;8239;48.594;8.598;2023-03-31T06:56:58;7.20;99.90
16263;DHT22;8239;48.594;8.598;2023-03-31T06:59:25;7.10;99.90
16263;DHT22;8239;48.594;8.598;2023-03-31T07:01:52;7.10;99.90
16263;DHT22;8239;48.594;8.598;2023-03-31T07:04:20;7.10;99.90
16263;DHT22;8239;48.594;8.598;2023-03-31T07:06:47;7.10;99.90
16263;DHT22;8239;48.594;8.598;2023-03-31T07:09:13;7.10;99.90
16263;DHT22;8239;48.594;8.598;2023-03-31T07:11:42;7.20;99.90
16263;DHT22;8239;48.594;8.598;2023-03-31T07:14:09;7.30;99.90
16263;DHT22;8239;48.594;8.598;2023-03-31T07:16:36;7.60;99.90
16263;DHT22;8239;48.594;8.598;2023-03-31T07:19:03;8.50;99.90
16263;DHT22;8239;48.594;8.598;2023-03-31T07:21:30;9.80;99.90
16263;DHT22;8239;48.594;8.598;2023-03-31T07:23:57;11.20;99.90
16263;DHT22;8239;48.594;8.598;2023-03-31T07:26:24;12.60;99.90
16263;DHT22;8239;48.594;8.598;2023-03-31T07:28:53;13.90;99.90
16263;DHT22;8239;48.594;8.598;2023-03-31T07:31:22;14.90;99.90
16263;DHT22;8239;48.594;8.598;2023-03-31T07:33:49;15.70;97.40
16263;DHT22;8239;48.594;8.598;2023-03-31T07:36:16;16.10;96.30
16263;DHT22;8239;48.594;8.598;2023-03-31T07:38:45;16.60;94.50
16263;DHT22;8239;48.594;8.598;2023-03-31T07:41:15;17.00;92.20
16263;DHT22;8239;48.594;8.598;2023-03-31T07:43:43;17.00;90.50
16263;DHT22;8239;48.594;8.598;2023-03-31T07:46:16;17.00;89.60
16263;DHT22;8239;48.594;8.598;2023-03-31T07:48:44;17.30;88.70
16263;DHT22;8239;48.594;8.598;2023-03-31T07:51:12;17.80;87.30
16263;DHT22;8239;48.594;8.598;2023-03-31T07:53:39;18.30;83.50
16263;DHT22;8239;48.594;8.598;2023-03-31T07:56:06;18.60;79.70
16263;DHT22;8239;48.594;8.598;2023-03-31T07:58:33;18.60;74.60
16263;DHT22;8239;48.594;8.598;2023-03-31T08:01:01;18.10;74.00
16263;DHT22;8239;48.594;8.598;2023-03-31T08:03:29;17.70;75.10
16263;DHT22;8239;48.594;8.598;2023-03-31T08:05:56;17.50;78.90
16263;DHT22;8239;48.594;8.598;2023-03-31T08:08:23;17.60;77.50
16263;DHT22;8239;48.594;8.598;2023-03-31T08:10:50;18.00;76.90
16263;DHT22;8239;48.594;8.598;2023-03-31T08:13:18;18.50;74.50
16263;DHT22;8239;48.594;8.598;2023-03-31T08:15:45;19.00;74.60
16263;DHT22;8239;48.594;8.598;2023-03-31T08:18:12;19.50;69.80
16263;DHT22;8239;48.594;8.598;2023-03-31T08:20:40;19.60;68.00
16263;DHT22;8239;48.594;8.598;2023-03-31T08:23:07;19.70;69.20
16263;DHT22;8239;48.594;8.598;2023-03-31T08:25:36;20.10;68.10
16263;DHT22;8239;48.594;8.598;2023-03-31T08:28:03;20.50;65.60
16263;DHT22;8239;48.594;8.598;2023-03-31T08:30:31;20.80;63.50
16263;DHT22;8239;48.594;8.598;2023-03-31T08:32:59;20.90;62.50
16263;DHT22;8239;48.594;8.598;2023-03-31T08:35:26;20.60;60.30
16263;DHT22;8239;48.594;8.598;2023-03-31T08:37:54;20.40;60.50
16263;DHT22;8239;48.594;8.598;2023-03-31T08:40:25;20.20;61.20
16263;DHT22;8239;48.594;8.598;2023-03-31T08:42:54;19.80;62.90
16263;DHT22;8239;48.594;8.598;2023-03-31T08:45:26;19.60;64.10
16263;DHT22;8239;48.594;8.598;2023-03-31T08:47:59;20.10;64.90
16263;DHT22;8239;48.594;8.598;2023-03-31T08:50:31;20.70;62.20
16263;DHT22;8239;48.594;8.598;2023-03-31T08:53:04;20.90;59.80
16263;DHT22;8239;48.594;8.598;2023-03-31T08:55:36;20.70;59.50
16263;DHT22;8239;48.594;8.598;2023-03-31T08:58:12;20.40;61.50
16263;DHT22;8239;48.594;8.598;2023-03-31T09:00:48;20.60;59.50
16263;DHT22;8239;48.594;8.598;2023-03-31T09:03:19;20.70;58.90
16263;DHT22;8239;48.594;8.598;2023-03-31T09:05:55;20.70;58.70
16263;DHT22;8239;48.594;8.598;2023-03-31T09:08:35;20.30;59.00
16263;DHT22;8239;48.594;8.598;2023-03-31T09:11:12;19.90;60.90
16263;DHT22;8239;48.594;8.598;2023-03-31T09:13:54;19.30;61.60
16263;DHT22;8239;48.594;8.598;2023-03-31T09:16:24;18.90;64.60
16263;DHT22;8239;48.594;8.598;2023-03-31T09:18:56;18.90;62.20
16263;DHT22;8239;48.594;8.598;2023-03-31T09:21:27;18.50;62.10
16263;DHT22;8239;48.594;8.598;2023-03-31T09:24:02;17.80;63.80
16263;DHT22;8239;48.594;8.598;2023-03-31T09:26:35;17.10;64.60
16263;DHT22;8239;48.594;8.598;2023-03-31T09:29:05;16.30;66.30
16263;DHT22;8239;48.594;8.598;2023-03-31T09:31:34;16.10;68.20
16263;DHT22;8239;48.594;8.598;2023-03-31T09:34:11;16.20;69.80
16263;DHT22;8239;48.594;8.598;2023-03-31T09:36:38;16.40;68.50
16263;DHT22;8239;48.594;8.598;2023-03-31T09:39:09;17.20;69.20
16263;DHT22;8239;48.594;8.598;2023-03-31T09:41:40;18.20;64.80
16263;DHT22;8239;48.594;8.598;2023-03-31T09:44:18;18.50;61.60
16263;DHT22;8239;48.594;8.598;2023-03-31T09:46:47;18.10;62.10
16263;DHT22;8239;48.594;8.598;2023-03-31T09:49:18;17.40;63.00
16263;DHT22;8239;48.594;8.598;2023-03-31T09:51:48;16.80;65.70
16263;DHT22;8239;48.594;8.598;2023-03-31T09:54:23;17.20;65.00
16263;DHT22;8239;48.594;8.598;2023-03-31T09:56:54;18.00;65.10
16263;DHT22;8239;48.594;8.598;2023-03-31T09:59:22;19.00;61.10
16263;DHT22;8239;48.594;8.598;2023-03-31T10:01:52;19.50;59.40
16263;DHT22;8239;48.594;8.598;2023-03-31T10:04:25;19.90;57.70
16263;DHT22;8239;48.594;8.598;2023-03-31T10:06:54;20.20;57.10
16263;DHT22;8239;48.594;8.598;2023-03-31T10:09:25;20.40;54.40
16263;DHT22;8239;48.594;8.598;2023-03-31T10:11:55;20.40;54.30
16263;DHT22;8239;48.594;8.598;2023-03-31T10:14:31;20.20;55.00
16263;DHT22;8239;48.594;8.598;2023-03-31T10:17:03;20.00;54.50
16263;DHT22;8239;48.594;8.598;2023-03-31T10:19:32;19.90;55.70
16263;DHT22;8239;48.594;8.598;2023-03-31T10:22:01;20.00;54.70
16263;DHT22;8239;48.594;8.598;2023-03-31T10:24:40;20.00;54.40
16263;DHT22;8239;48.594;8.598;2023-03-31T10:27:19;20.20;54.90
16263;DHT22;8239;48.594;8.598;2023-03-31T10:29:54;20.20;53.90
16263;DHT22;8239;48.594;8.598;2023-03-31T10:32:27;19.80;54.30
16263;DHT22;8239;48.594;8.598;2023-03-31T10:35:05;18.80;53.30
16263;DHT22;8239;48.594;8.598;2023-03-31T10:37:36;17.80;55.40
16263;DHT22;8239;48.594;8.598;2023-03-31T10:40:14;16.80;58.40
16263;DHT22;8239;48.594;8.598;2023-03-31T10:42:44;15.90;61.80
16263;DHT22;8239;48.594;8.598;2023-03-31T10:45:23;15.40;65.30
16263;DHT22;8239;48.594;8.598;2023-03-31T10:47:52;14.90;65.00
16263;DHT22;8239;48.594;8.598;2023-03-31T10:50:26;14.20;64.40
16263;DHT22;8239;48.594;8.598;2023-03-31T10:53:01;13.50;67.70
16263;DHT22;8239;48.594;8.598;2023-03-31T10:55:34;12.80;71.50
16263;DHT22;8239;48.594;8.598;2023-03-31T10:58:10;11.80;75.40
16263;DHT22;8239;48.594;8.598;2023-03-31T11:00:49;10.80;84.40
16263;DHT22;8239;48.594;8.598;2023-03-31T11:03:50;9.80;91.60
16263;DHT22;8239;48.594;8.598;2023-03-31T11:06:25;8.70;95.60
16263;DHT22;8239;48.594;8.598;2023-03-31T11:09:04;8.00;99.70
16263;DHT22;8239;48.594;8.598;2023-03-31T11:11:52;7.50;99.90
16263;DHT22;8239;48.594;8.598;2023-03-31T11:14:28;7.00;99.90
16263;DHT22;8239;48.594;8.598;2023-03-31T11:17:03;6.70;99.90
16263;DHT22;8239;48.594;8.598;2023-03-31T11:19:43;6.60;99.90
16263;DHT22;8239;48.594;8.598;2023-03-31T11:22:20;6.50;99.90
16263;DHT22;8239;48.594;8.598;2023-03-31T11:25:18;6.40;99.90
16263;DHT22;8239;48.594;8.598;2023-03-31T11:28:02;6.50;99.90
16263;DHT22;8239;48.594;8.598;2023-03-31T11:30:38;6.60;99.90
16263;DHT22;8239;48.594;8.598;2023-03-31T11:33:22;6.70;99.90
16263;DHT22;8239;48.594;8.598;2023-03-31T11:36:01;6.90;99.90
16263;DHT22;8239;48.594;8.598;2023-03-31T11:38:43;7.30;99.90
16263;DHT22;8239;48.594;8.598;2023-03-31T11:41:16;7.90;99.90
16263;DHT22;8239;48.594;8.598;2023-03-31T11:43:47;8.60;99.90
16263;DHT22;8239;48.594;8.598;2023-03-31T11:46:19;9.10;99.90
16263;DHT22;8239;48.594;8.598;2023-03-31T11:48:52;9.30;99.90
16263;DHT22;8239;48.594;8.598;2023-03-31T11:51:26;9.20;99.90
16263;DHT22;8239;48.594;8.598;2023-03-31T11:53:57;9.10;99.90
16263;DHT22;8239;48.594;8.598;2023-03-31T11:56:28;9.20;99.90
16263;DHT22;8239;48.594;8.598;2023-03-31T11:58:59;9.80;99.90
16263;DHT22;8239;48.594;8.598;2023-03-31T12:01:32;10.50;99.90
16263;DHT22;8239;48.594;8.598;2023-03-31T12:04:08;11.50;99.90
16263;DHT22;8239;48.594;8.598;2023-03-31T12:06:39;12.60;99.90
16263;DHT22;8239;48.594;8.598;2023-03-31T12:09:12;13.40;99.90
16263;DHT22;8239;48.594;8.598;2023-03-31T12:11:45;14.20;99.90
16263;DHT22;8239;48.594;8.598;2023-03-31T12:14:26;14.70;99.70
16263;DHT22;8239;48.594;8.598;2023-03-31T12:16:59;14.90;97.20
16263;DHT22;8239;48.594;8.598;2023-03-31T12:19:31;15.00;94.70
16263;DHT22;8239;48.594;8.598;2023-03-31T12:22:04;15.10;92.90
16263;DHT22;8239;48.594;8.598;2023-03-31T12:24:33;15.10;92.20
16263;DHT22;8239;48.594;8.598;2023-03-31T12:27:05;15.60;92.40
16263;DHT22;8239;48.594;8.598;2023-03-31T12:29:37;16.20;90.70
16263;DHT22;8239;48.594;8.598;2023-03-31T12:32:09;16.80;87.90
16263;DHT22;8239;48.594;8.598;2023-03-31T12:34:42;17.40;88.20
16263;DHT22;8239;48.594;8.598;2023-03-31T12:37:29;17.90;78.00
16263;DHT22;8239;48.594;8.598;2023-03-31T12:40:06;18.30;77.70
16263;DHT22;8239;48.594;8.598;2023-03-31T12:42:50;18.10;73.60
16263;DHT22;8239;48.594;8.598;2023-03-31T12:45:27;17.30;73.90
16263;DHT22;8239;48.594;8.598;2023-03-31T12:48:25;16.30;75.30
16263;DHT22;8239;48.594;8.598;2023-03-31T12:51:08;15.50;79.20
16263;DHT22;8239;48.594;8.598;2023-03-31T12:53:43;14.60;81.60
16263;DHT22;8239;48.594;8.598;2023-03-31T12:56:13;14.00;85.70
16263;DHT22;8239;48.594;8.598;2023-03-31T12:58:43;13.40;87.60
16263;DHT22;8239;48.594;8.598;2023-03-31T13:01:17;13.00;90.50
16263;DHT22;8239;48.594;8.598;2023-03-31T13:03:50;12.60;92.00
16263;DHT22;8239;48.594;8.598;2023-03-31T13:06:47;12.20;93.80
16263;DHT22;8239;48.594;8.598;2023-03-31T13:09:42;11.90;95.60
16263;DHT22;8239;48.594;8.598;2023-03-31T13:12:17;11.40;97.10
16263;DHT22;8239;48.594;8.598;2023-03-31T13:14:47;10.80;98.40
16263;DHT22;8239;48.594;8.598;2023-03-31T13:17:29;10.30;99.30
16263;DHT22;8239;48.594;8.598;2023-03-31T13:20:15;9.60;99.90
16263;DHT22;8239;48.594;8.598;2023-03-31T13:22:44;9.00;99.90
16263;DHT22;8239;48.594;8.598;2023-03-31T13:25:44;8.50;99.90
16263;DHT22;8239;48.594;8.598;2023-03-31T13:31:00;7.50;99.90
16263;DHT22;8239;48.594;8.598;2023-03-31T13:33:31;7.10;99.90
16263;DHT22;8239;48.594;8.598;2023-03-31T13:36:29;6.90;99.90
16263;DHT22;8239;48.594;8.598;2023-03-31T13:39:25;6.70;99.90
16263;DHT22;8239;48.594;8.598;2023-03-31T13:41:59;6.70;99.90
16263;DHT22;8239;48.594;8.598;2023-03-31T13:48:08;8.90;99.90
16263;DHT22;8239;48.594;8.598;2023-03-31T13:50:57;11.50;99.90
16263;DHT22;8239;48.594;8.598;2023-03-31T13:53:45;13.80;99.90
16263;DHT22;8239;48.594;8.598;2023-03-31T13:56:32;14.80;98.80
16263;DHT22;8239;48.594;8.598;2023-03-31T13:59:15;14.90;92.60
16263;DHT22;8239;48.594;8.598;2023-03-31T14:01:59;14.10;91.10
16263;DHT22;8239;48.594;8.598;2023-03-31T14:04:54;12.90;91.60
16263;DHT22;8239;48.594;8.598;2023-03-31T14:07:31;11.80;93.70
16263;DHT22;8239;48.594;8.598;2023-03-31T14:09:59;10.80;96.70
16263;DHT22;8239;48.594;8.598;2023-03-31T14:12:31;10.20;99.90
16263;DHT22;8239;48.594;8.598;2023-03-31T14:14:59;10.50;99.90
16263;DHT22;8239;48.594;8.598;2023-03-31T14:17:28;11.80;99.90
16263;DHT22;8239;48.594;8.598;2023-03-31T14:20:11;13.40;99.80
16263;DHT22;8239;48.594;8.598;2023-03-31T14:22:51;14.70;96.40
16263;DHT22;8239;48.594;8.598;2023-03-31T14:25:35;15.70;91.50
16263;DHT22;8239;48.594;8.598;2023-03-31T14:28:15;16.30;87.80
16263;DHT22;8239;48.594;8.598;2023-03-31T14:30:52;16.60;85.00
16263;DHT22;8239;48.594;8.598;2023-03-31T14:33:31;17.10;89.10
16263;DHT22;8239;48.594;8.598;2023-03-31T14:36:07;17.60;85.40
16263;DHT22;8239;48.594;8.598;2023-03-31T14:38:37;18.00;78.00
16263;DHT22;8239;48.594;8.598;2023-03-31T14:41:04;18.10;74.40
16263;DHT22;8239;48.594;8.598;2023-03-31T14:43:32;18.10;72.40
16263;DHT22;8239;48.594;8.598;2023-03-31T14:46:05;17.90;72.30
16263;DHT22;8239;48.594;8.598;2023-03-31T14:48:34;17.80;73.50
16263;DHT22;8239;48.594;8.598;2023-03-31T14:51:08;17.60;72.80
16263;DHT22;8239;48.594;8.598;2023-03-31T14:53:37;17.70;74.00
16263;DHT22;8239;48.594;8.598;2023-03-31T14:56:06;18.00;74.00
16263;DHT22;8239;48.594;8.598;2023-03-31T14:58:37;18.40;67.10
16263;DHT22;8239;48.594;8.598;2023-03-31T15:01:08;18.20;66.90
16263;DHT22;8239;48.594;8.598;2023-03-31T15:03:38;17.70;67.40
16263;DHT22;8239;48.594;8.598;2023-03-31T15:06:07;17.00;69.80
16263;DHT22;8239;48.594;8.598;2023-03-31T15:08:35;16.40;71.50
16263;DHT22;8239;48.594;8.598;2023-03-31T15:11:05;15.90;73.70
16263;DHT22;8239;48.594;8.598;2023-03-31T15:13:35;16.10;77.10
16263;DHT22;8239;48.594;8.598;2023-03-31T15:16:19;16.10;72.70
16263;DHT22;8239;48.594;8.598;2023-03-31T15:18:46;16.00;74.90
16263;DHT22;8239;48.594;8.598;2023-03-31T15:21:19;15.50;72.60
16263;DHT22;8239;48.594;8.598;2023-03-31T15:23:50;14.90;74.50
16263;DHT22;8239;48.594;8.598;2023-03-31T15:26:21;14.20;76.20
16263;DHT22;8239;48.594;8.598;2023-03-31T15:28:52;13.40;79.40
16263;DHT22;8239;48.594;8.598;2023-03-31T15:31:21;12.70;82.10
16263;DHT22;8239;48.594;8.598;2023-03-31T15:33:49;12.30;85.30
16263;DHT22;8239;48.594;8.598;2023-03-31T15:36:16;11.90;88.70
16263;DHT22;8239;48.594;8.598;2023-03-31T15:38:43;11.70;90.50
16263;DHT22;8239;48.594;8.598;2023-03-31T15:41:11;11.60;91.60
16263;DHT22;8239;48.594;8.598;2023-03-31T15:43:47;11.40;92.80
16263;DHT22;8239;48.594;8.598;2023-03-31T15:46:19;11.30;94.30
16263;DHT22;8239;48.594;8.598;2023-03-31T15:48:51;11.20;95.00
16263;DHT22;8239;48.594;8.598;2023-03-31T15:51:24;11.10;95.50
16263;DHT22;8239;48.594;8.598;2023-03-31T15:53:52;11.00;96.30
16263;DHT22;8239;48.594;8.598;2023-03-31T15:56:28;10.80;97.10
16263;DHT22;8239;48.594;8.598;2023-03-31T15:58:58;10.60;98.00
16263;DHT22;8239;48.594;8.598;2023-03-31T16:01:30;10.40;98.50
16263;DHT22;8239;48.594;8.598;2023-03-31T16:03:59;10.00;99.60
16263;DHT22;8239;48.594;8.598;2023-03-31T16:06:34;9.60;99.90
16263;DHT22;8239;48.594;8.598;2023-03-31T16:09:06;9.20;99.90
16263;DHT22;8239;48.594;8.598;2023-03-31T16:11:37;8.80;99.90
16263;DHT22;8239;48.594;8.598;2023-03-31T16:14:13;8.40;99.90
16263;DHT22;8239;48.594;8.598;2023-03-31T16:16:46;8.10;99.90
16263;DHT22;8239;48.594;8.598;2023-03-31T16:19:15;7.70;99.90
16263;DHT22;8239;48.594;8.598;2023-03-31T16:21:45;7.50;99.90
16263;DHT22;8239;48.594;8.598;2023-03-31T16:24:15;7.30;99.90
16263;DHT22;8239;48.594;8.598;2023-03-31T16:26:42;7.20;99.90
16263;DHT22;8239;48.594;8.598;2023-03-31T16:29:18;7.20;99.90
16263;DHT22;8239;48.594;8.598;2023-03-31T16:31:47;7.20;99.90
16263;DHT22;8239;48.594;8.598;2023-03-31T16:34:14;7.40;99.90
16263;DHT22;8239;48.594;8.598;2023-03-31T16:36:45;7.60;99.90
16263;DHT22;8239;48.594;8.598;2023-03-31T16:39:12;7.70;99.90
16263;DHT22;8239;48.594;8.598;2023-03-31T16:41:39;7.80;99.90
16263;DHT22;8239;48.594;8.598;2023-03-31T16:44:09;7.90;99.90